createdAt,value
2017-07-19T00:00:56.230Z,0
2017-07-19T00:01:56.155Z,0
2017-07-19T00:02:56.169Z,0
2017-07-19T00:03:56.187Z,0
2017-07-19T00:04:56.229Z,0
2017-07-19T00:05:56.166Z,0
2017-07-19T00:06:56.198Z,0
2017-07-19T00:07:56.143Z,0
2017-07-19T00:08:56.199Z,0
2017-07-19T00:09:56.143Z,0
2017-07-19T00:10:56.130Z,0
2017-07-19T00:11:56.168Z,0
2017-07-19T00:12:56.201Z,0
2017-07-19T00:13:56.209Z,0
2017-07-19T00:14:56.233Z,0
2017-07-19T00:15:56.178Z,0
2017-07-19T00:16:56.176Z,0
2017-07-19T00:17:56.189Z,0
2017-07-19T00:18:56.145Z,0
2017-07-19T00:19:56.175Z,0
2017-07-19T00:20:56.145Z,0
2017-07-19T00:21:56.154Z,0
2017-07-19T00:22:56.197Z,0
2017-07-19T00:23:56.150Z,0
2017-07-19T00:24:56.180Z,0
2017-07-19T00:25:56.237Z,0
2017-07-19T00:26:56.216Z,0
2017-07-19T00:27:56.184Z,0
2017-07-19T00:28:56.237Z,0
2017-07-19T00:29:56.155Z,0
2017-07-19T00:30:56.214Z,0
2017-07-19T00:31:56.184Z,0
2017-07-19T00:32:56.200Z,0
2017-07-19T00:33:56.237Z,0
2017-07-19T00:34:56.183Z,0
2017-07-19T00:35:56.189Z,0
2017-07-19T00:36:56.205Z,0
2017-07-19T00:37:56.207Z,0
2017-07-19T00:38:56.203Z,0
2017-07-19T00:39:56.142Z,0
2017-07-19T00:40:56.149Z,0
2017-07-19T00:41:56.147Z,0
2017-07-19T00:42:56.209Z,0
2017-07-19T00:43:56.148Z,0
2017-07-19T00:44:56.151Z,0
2017-07-19T00:45:56.179Z,0
2017-07-19T00:46:56.180Z,0
2017-07-19T00:47:56.188Z,0
2017-07-19T00:48:56.155Z,0
2017-07-19T00:49:56.210Z,0
2017-07-19T00:50:56.209Z,0
2017-07-19T00:51:56.153Z,0
2017-07-19T00:52:56.220Z,0
2017-07-19T00:53:56.208Z,0
2017-07-19T00:54:56.156Z,0
2017-07-19T00:55:56.216Z,0
2017-07-19T00:56:56.216Z,0
2017-07-19T00:57:56.252Z,0
2017-07-19T00:58:56.176Z,0
2017-07-19T00:59:56.229Z,0
2017-07-19T01:00:56.202Z,0
2017-07-19T01:01:56.164Z,0
2017-07-19T01:02:56.169Z,0
2017-07-19T01:03:56.203Z,0
2017-07-19T01:04:56.265Z,0
2017-07-19T01:05:56.257Z,0
2017-07-19T01:06:56.167Z,0
2017-07-19T01:07:56.222Z,0
2017-07-19T01:08:56.204Z,0
2017-07-19T01:09:56.202Z,0
2017-07-19T01:10:56.208Z,0
2017-07-19T01:11:56.265Z,0
2017-07-19T01:12:56.184Z,0
2017-07-19T01:13:56.238Z,0
2017-07-19T01:14:56.238Z,0
2017-07-19T01:15:56.239Z,0
2017-07-19T01:16:56.205Z,0
2017-07-19T01:17:56.184Z,0
2017-07-19T01:18:56.174Z,0
2017-07-19T01:19:56.207Z,0
2017-07-19T01:20:56.239Z,0
2017-07-19T01:21:56.246Z,0
2017-07-19T01:22:56.203Z,0
2017-07-19T01:23:56.176Z,0
2017-07-19T01:24:56.211Z,0
2017-07-19T01:25:56.207Z,0
2017-07-19T01:26:56.233Z,0
2017-07-19T01:27:56.245Z,0
2017-07-19T01:28:56.241Z,0
2017-07-19T01:29:56.280Z,0
2017-07-19T01:30:56.215Z,0
2017-07-19T01:31:56.191Z,0
2017-07-19T01:32:56.242Z,0
2017-07-19T01:33:56.249Z,0
2017-07-19T01:34:56.254Z,0
2017-07-19T01:35:56.193Z,0
2017-07-19T01:36:56.208Z,0
2017-07-19T01:37:56.204Z,0
2017-07-19T01:38:56.183Z,0
2017-07-19T01:39:56.208Z,0
2017-07-19T01:40:56.212Z,0
2017-07-19T01:41:56.206Z,0
2017-07-19T01:42:56.209Z,0
2017-07-19T01:43:56.188Z,0
2017-07-19T01:44:56.245Z,0
2017-07-19T01:45:56.244Z,0
2017-07-19T01:46:56.185Z,0
2017-07-19T01:47:56.221Z,0
2017-07-19T01:48:56.261Z,0
2017-07-19T01:49:56.228Z,0
2017-07-19T01:50:56.320Z,0
2017-07-19T01:51:56.191Z,0
2017-07-19T01:52:56.249Z,0
2017-07-19T01:53:56.228Z,0
2017-07-19T01:54:56.291Z,0
2017-07-19T01:55:56.249Z,0
2017-07-19T01:56:56.229Z,0
2017-07-19T01:57:56.282Z,0
2017-07-19T01:58:56.220Z,0
2017-07-19T01:59:56.300Z,0
2017-07-19T02:00:56.292Z,0
2017-07-19T02:01:56.289Z,0
2017-07-19T02:02:56.253Z,0
2017-07-19T02:03:56.256Z,0
2017-07-19T02:04:56.268Z,0
2017-07-19T02:05:56.236Z,0
2017-07-19T02:06:56.226Z,0
2017-07-19T02:07:56.240Z,0
2017-07-19T02:08:56.212Z,0
2017-07-19T02:09:56.233Z,0
2017-07-19T02:10:56.303Z,0
2017-07-19T02:11:56.260Z,0
2017-07-19T02:12:56.246Z,0
2017-07-19T02:13:56.269Z,0
2017-07-19T02:14:56.205Z,0
2017-07-19T02:15:56.302Z,0
2017-07-19T02:16:56.272Z,0
2017-07-19T02:17:56.219Z,0
2017-07-19T02:18:56.242Z,0
2017-07-19T02:19:56.213Z,0
2017-07-19T02:20:56.208Z,0
2017-07-19T02:21:56.279Z,0
2017-07-19T02:22:56.236Z,0
2017-07-19T02:23:56.306Z,0
2017-07-19T02:24:56.240Z,0
2017-07-19T02:25:56.218Z,0
2017-07-19T02:26:56.307Z,0
2017-07-19T02:27:56.207Z,0
2017-07-19T02:28:56.238Z,0
2017-07-19T02:29:56.269Z,0
2017-07-19T02:30:56.208Z,0
2017-07-19T02:31:56.241Z,0
2017-07-19T02:32:56.211Z,0
2017-07-19T02:33:56.241Z,0
2017-07-19T02:34:56.211Z,0
2017-07-19T02:35:56.276Z,0
2017-07-19T02:36:56.210Z,0
2017-07-19T02:37:56.242Z,0
2017-07-19T02:38:56.237Z,0
2017-07-19T02:39:56.273Z,0
2017-07-19T02:40:56.210Z,0
2017-07-19T02:41:56.263Z,0
2017-07-19T02:42:56.217Z,0
2017-07-19T02:43:56.278Z,0
2017-07-19T02:44:56.373Z,0
2017-07-19T02:45:56.298Z,0
2017-07-19T02:46:56.217Z,0
2017-07-19T02:47:56.232Z,0
2017-07-19T02:48:56.229Z,0
2017-07-19T02:49:56.234Z,0
2017-07-19T02:50:56.264Z,0
2017-07-19T02:51:56.281Z,0
2017-07-19T02:52:56.258Z,0
2017-07-19T02:53:56.241Z,0
2017-07-19T02:54:56.289Z,0
2017-07-19T02:55:56.258Z,0
2017-07-19T02:56:56.233Z,0
2017-07-19T02:57:56.232Z,0
2017-07-19T02:58:56.335Z,0
2017-07-19T02:59:56.334Z,0
2017-07-19T03:00:56.238Z,0
2017-07-19T03:01:56.267Z,0
2017-07-19T03:02:56.330Z,0
2017-07-19T03:03:56.304Z,0
2017-07-19T03:04:56.290Z,0
2017-07-19T03:05:56.261Z,0
2017-07-19T03:06:56.337Z,0
2017-07-19T03:07:56.267Z,0
2017-07-19T03:08:56.276Z,0
2017-07-19T03:09:56.291Z,0
2017-07-19T03:10:56.307Z,0
2017-07-19T03:11:56.312Z,0
2017-07-19T03:12:56.293Z,0
2017-07-19T03:13:56.296Z,0
2017-07-19T03:14:56.268Z,0
2017-07-19T03:15:56.271Z,0
2017-07-19T03:16:56.245Z,0
2017-07-19T03:17:56.265Z,0
2017-07-19T03:18:56.178Z,0
2017-07-19T03:19:56.255Z,0
2017-07-19T03:20:56.188Z,0
2017-07-19T03:21:56.258Z,0
2017-07-19T03:22:56.257Z,0
2017-07-19T03:23:56.261Z,0
2017-07-19T03:24:56.256Z,0
2017-07-19T03:25:56.229Z,0
2017-07-19T03:26:56.243Z,0
2017-07-19T03:27:56.339Z,0
2017-07-19T03:28:56.251Z,0
2017-07-19T03:29:56.259Z,0
2017-07-19T03:30:56.340Z,0
2017-07-19T03:31:56.284Z,0
2017-07-19T03:32:56.289Z,0
2017-07-19T03:33:56.289Z,0
2017-07-19T03:34:56.314Z,0
2017-07-19T03:35:56.251Z,0
2017-07-19T03:36:56.284Z,0
2017-07-19T03:37:56.256Z,0
2017-07-19T03:38:56.238Z,0
2017-07-19T03:39:56.239Z,0
2017-07-19T03:40:56.255Z,0
2017-07-19T03:41:56.307Z,0
2017-07-19T03:42:56.272Z,0
2017-07-19T03:43:56.269Z,0
2017-07-19T03:44:56.249Z,0
2017-07-19T03:45:56.252Z,0
2017-07-19T03:46:56.268Z,0
2017-07-19T03:47:56.310Z,0
2017-07-19T03:48:56.316Z,0
2017-07-19T03:49:56.292Z,0
2017-07-19T03:50:56.299Z,0
2017-07-19T03:51:56.290Z,0
2017-07-19T03:52:56.266Z,0
2017-07-19T03:53:56.322Z,0
2017-07-19T03:54:56.311Z,0
2017-07-19T03:55:56.346Z,0
2017-07-19T03:56:56.276Z,0
2017-07-19T03:57:56.263Z,0
2017-07-19T03:58:56.293Z,0
2017-07-19T03:59:56.268Z,0
2017-07-19T04:00:56.315Z,0
2017-07-19T04:01:56.293Z,0
2017-07-19T04:02:56.357Z,0
2017-07-19T04:03:56.263Z,0
2017-07-19T04:04:56.329Z,0
2017-07-19T04:05:56.269Z,0
2017-07-19T04:06:56.365Z,0
2017-07-19T04:07:56.291Z,0
2017-07-19T04:08:56.283Z,0
2017-07-19T04:09:56.294Z,0
2017-07-19T04:10:56.300Z,0
2017-07-19T04:11:56.295Z,0
2017-07-19T04:12:56.243Z,0
2017-07-19T04:13:56.284Z,0
2017-07-19T04:14:56.312Z,0
2017-07-19T04:15:56.245Z,0
2017-07-19T04:16:56.224Z,15
2017-07-19T04:17:56.301Z,15
2017-07-19T04:18:56.299Z,16
2017-07-19T04:19:56.354Z,17
2017-07-19T04:20:56.315Z,18
2017-07-19T04:21:56.340Z,19
2017-07-19T04:22:56.336Z,19
2017-07-19T04:23:56.307Z,20
2017-07-19T04:24:56.310Z,20
2017-07-19T04:25:56.354Z,21
2017-07-19T04:26:56.342Z,21
2017-07-19T04:27:56.374Z,21
2017-07-19T04:28:56.310Z,22
2017-07-19T04:29:56.336Z,23
2017-07-19T04:30:56.286Z,23
2017-07-19T04:31:56.355Z,23
2017-07-19T04:32:56.301Z,24
2017-07-19T04:33:56.379Z,24
2017-07-19T04:34:56.351Z,25
2017-07-19T04:35:56.315Z,25
2017-07-19T04:36:56.344Z,26
2017-07-19T04:37:56.375Z,26
2017-07-19T04:38:56.352Z,27
2017-07-19T04:39:56.319Z,27
2017-07-19T04:40:56.316Z,27
2017-07-19T04:41:56.361Z,28
2017-07-19T04:42:56.319Z,27
2017-07-19T04:43:56.377Z,28
2017-07-19T04:44:56.321Z,29
2017-07-19T04:45:56.384Z,28
2017-07-19T04:46:56.294Z,30
2017-07-19T04:47:56.317Z,26
2017-07-19T04:48:56.291Z,31
2017-07-19T04:49:56.317Z,30
2017-07-19T04:50:56.378Z,31
2017-07-19T04:51:56.331Z,31
2017-07-19T04:52:56.364Z,33
2017-07-19T04:53:56.368Z,33
2017-07-19T04:54:56.301Z,32
2017-07-19T04:55:56.352Z,32
2017-07-19T04:56:56.393Z,34
2017-07-19T04:57:56.298Z,34
2017-07-19T04:58:56.371Z,35
2017-07-19T04:59:56.318Z,35
2017-07-19T05:00:56.397Z,36
2017-07-19T05:01:56.299Z,36
2017-07-19T05:02:56.396Z,37
2017-07-19T05:03:56.336Z,37
2017-07-19T05:04:56.393Z,38
2017-07-19T05:05:56.305Z,38
2017-07-19T05:06:56.310Z,39
2017-07-19T05:07:56.306Z,40
2017-07-19T05:08:56.304Z,41
2017-07-19T05:09:56.336Z,42
2017-07-19T05:10:56.313Z,42
2017-07-19T05:11:56.345Z,43
2017-07-19T05:12:56.380Z,44
2017-07-19T05:13:56.403Z,43
2017-07-19T05:14:56.398Z,45
2017-07-19T05:15:56.313Z,46
2017-07-19T05:16:56.338Z,47
2017-07-19T05:17:56.367Z,46
2017-07-19T05:18:56.326Z,48
2017-07-19T05:19:56.301Z,49
2017-07-19T05:20:56.363Z,50
2017-07-19T05:21:56.298Z,52
2017-07-19T05:22:56.332Z,52
2017-07-19T05:23:56.300Z,53
2017-07-19T05:24:56.335Z,53
2017-07-19T05:25:56.364Z,55
2017-07-19T05:26:56.371Z,56
2017-07-19T05:27:56.353Z,57
2017-07-19T05:28:56.336Z,58
2017-07-19T05:29:56.325Z,59
2017-07-19T05:30:57.431Z,58
2017-07-19T05:31:56.342Z,61
2017-07-19T05:32:56.342Z,62
2017-07-19T05:33:56.382Z,62
2017-07-19T05:34:56.318Z,63
2017-07-19T05:35:56.384Z,62
2017-07-19T05:36:56.286Z,53
2017-07-19T05:37:56.387Z,64
2017-07-19T05:38:56.340Z,65
2017-07-19T05:39:56.320Z,66
2017-07-19T05:40:56.289Z,67
2017-07-19T05:41:56.391Z,65
2017-07-19T05:42:56.343Z,66
2017-07-19T05:43:56.328Z,69
2017-07-19T05:44:56.342Z,68
2017-07-19T05:45:56.347Z,69
2017-07-19T05:46:56.275Z,67
2017-07-19T05:47:56.346Z,65
2017-07-19T05:48:56.518Z,65
2017-07-19T05:49:56.393Z,70
2017-07-19T05:50:56.332Z,72
2017-07-19T05:51:56.400Z,73
2017-07-19T05:52:56.334Z,71
2017-07-19T05:53:56.421Z,72
2017-07-19T05:54:56.354Z,75
2017-07-19T05:55:56.393Z,75
2017-07-19T05:56:56.337Z,77
2017-07-19T05:57:56.418Z,76
2017-07-19T05:58:56.424Z,78
2017-07-19T05:59:56.371Z,79
2017-07-19T06:00:56.336Z,79
2017-07-19T06:01:56.361Z,78
2017-07-19T06:02:56.364Z,81
2017-07-19T06:03:56.335Z,83
2017-07-19T06:04:56.337Z,83
2017-07-19T06:05:56.335Z,84
2017-07-19T06:06:56.337Z,83
2017-07-19T06:07:56.390Z,85
2017-07-19T06:08:56.396Z,85
2017-07-19T06:09:56.360Z,86
2017-07-19T06:10:56.359Z,86
2017-07-19T06:11:56.470Z,86
2017-07-19T06:12:56.391Z,85
2017-07-19T06:13:56.363Z,86
2017-07-19T06:14:56.387Z,83
2017-07-19T06:15:56.363Z,84
2017-07-19T06:16:56.332Z,85
2017-07-19T06:17:56.359Z,81
2017-07-19T06:18:56.345Z,73
2017-07-19T06:19:56.369Z,80
2017-07-19T06:20:56.436Z,89
2017-07-19T06:21:56.377Z,90
2017-07-19T06:22:56.440Z,92
2017-07-19T06:23:56.386Z,89
2017-07-19T06:24:56.419Z,91
2017-07-19T06:25:56.346Z,94
2017-07-19T06:26:56.366Z,126
2017-07-19T06:27:56.349Z,135
2017-07-19T06:28:56.333Z,144
2017-07-19T06:29:56.372Z,135
2017-07-19T06:30:56.377Z,135
2017-07-19T06:31:56.345Z,140
2017-07-19T06:32:56.376Z,148
2017-07-19T06:33:56.373Z,153
2017-07-19T06:34:56.404Z,186
2017-07-19T06:35:56.407Z,182
2017-07-19T06:36:56.417Z,182
2017-07-19T06:37:56.375Z,168
2017-07-19T06:38:56.355Z,169
2017-07-19T06:39:56.353Z,144
2017-07-19T06:40:56.375Z,171
2017-07-19T06:41:56.393Z,184
2017-07-19T06:42:56.354Z,179
2017-07-19T06:43:56.413Z,183
2017-07-19T06:44:56.434Z,196
2017-07-19T06:45:56.421Z,227
2017-07-19T06:46:56.418Z,231
2017-07-19T06:47:56.359Z,293
2017-07-19T06:48:56.380Z,286
2017-07-19T06:49:56.424Z,297
2017-07-19T06:50:56.425Z,298
2017-07-19T06:51:56.396Z,337
2017-07-19T06:52:56.357Z,335
2017-07-19T06:53:56.417Z,336
2017-07-19T06:54:56.363Z,334
2017-07-19T06:55:56.400Z,327
2017-07-19T06:56:56.419Z,328
2017-07-19T06:57:56.382Z,323
2017-07-19T06:58:56.344Z,322
2017-07-19T06:59:56.383Z,362
2017-07-19T07:00:56.380Z,365
2017-07-19T07:01:56.380Z,365
2017-07-19T07:02:56.360Z,367
2017-07-19T07:03:56.345Z,384
2017-07-19T07:04:56.392Z,362
2017-07-19T07:05:56.368Z,416
2017-07-19T07:06:56.382Z,390
2017-07-19T07:07:56.379Z,413
2017-07-19T07:08:56.458Z,391
2017-07-19T07:09:56.465Z,424
2017-07-19T07:10:56.395Z,439
2017-07-19T07:11:56.429Z,417
2017-07-19T07:12:56.374Z,480
2017-07-19T07:13:56.434Z,484
2017-07-19T07:14:56.404Z,504
2017-07-19T07:16:56.446Z,557
2017-07-19T07:17:56.400Z,556
2017-07-19T07:18:56.408Z,540
2017-07-19T07:19:56.397Z,552
2017-07-19T07:20:56.399Z,557
2017-07-19T07:21:56.383Z,553
2017-07-19T07:22:56.469Z,565
2017-07-19T07:23:56.452Z,532
2017-07-19T07:24:56.378Z,473
2017-07-19T07:25:56.380Z,487
2017-07-19T07:26:56.468Z,526
2017-07-19T07:27:56.398Z,514
2017-07-19T07:28:56.412Z,577
2017-07-19T07:29:56.441Z,597
2017-07-19T07:30:56.469Z,638
2017-07-19T07:31:56.437Z,643
2017-07-19T07:32:56.415Z,653
2017-07-19T07:33:56.422Z,664
2017-07-19T07:34:56.458Z,659
2017-07-19T07:35:56.415Z,658
2017-07-19T07:36:56.409Z,648
2017-07-19T07:37:56.442Z,652
2017-07-19T07:38:56.441Z,651
2017-07-19T07:39:56.412Z,649
2017-07-19T07:40:56.442Z,644
2017-07-19T07:41:56.446Z,650
2017-07-19T07:42:56.412Z,665
2017-07-19T07:43:56.440Z,680
2017-07-19T07:44:56.504Z,684
2017-07-19T07:45:56.415Z,681
2017-07-19T07:46:56.385Z,679
2017-07-19T07:47:56.419Z,685
2017-07-19T07:48:56.412Z,693
2017-07-19T07:49:56.497Z,687
2017-07-19T07:50:56.385Z,690
2017-07-19T07:51:56.447Z,674
2017-07-19T07:52:56.419Z,680
2017-07-19T07:53:56.451Z,666
2017-07-19T07:54:56.384Z,680
2017-07-19T07:55:56.422Z,703
2017-07-19T07:56:56.388Z,713
2017-07-19T07:57:56.393Z,707
2017-07-19T07:58:56.451Z,702
2017-07-19T07:59:56.419Z,690
2017-07-19T08:00:56.386Z,682
2017-07-19T08:01:56.391Z,692
2017-07-19T08:02:56.425Z,688
2017-07-19T08:03:56.453Z,683
2017-07-19T08:04:56.505Z,692
2017-07-19T08:05:56.390Z,688
2017-07-19T08:06:56.424Z,705
2017-07-19T08:07:56.390Z,727
2017-07-19T08:08:56.423Z,720
2017-07-19T08:09:56.540Z,723
2017-07-19T08:10:56.461Z,720
2017-07-19T08:11:56.431Z,720
2017-07-19T08:12:56.465Z,731
2017-07-19T08:13:56.422Z,753
2017-07-19T08:14:56.457Z,761
2017-07-19T08:15:56.462Z,745
2017-07-19T08:16:56.398Z,762
2017-07-19T08:17:56.399Z,769
2017-07-19T08:18:56.444Z,781
2017-07-19T08:19:56.483Z,767
2017-07-19T08:20:56.465Z,755
2017-07-19T08:21:56.416Z,737
2017-07-19T08:22:56.412Z,751
2017-07-19T08:23:56.511Z,752
2017-07-19T08:24:56.416Z,743
2017-07-19T08:25:56.490Z,755
2017-07-19T08:26:56.478Z,757
2017-07-19T08:27:56.500Z,753
2017-07-19T08:28:56.476Z,767
2017-07-19T08:29:56.511Z,796
2017-07-19T08:30:56.448Z,780
2017-07-19T08:31:56.475Z,801
2017-07-19T08:32:56.452Z,789
2017-07-19T08:33:56.418Z,776
2017-07-19T08:34:56.519Z,773
2017-07-19T08:35:56.488Z,797
2017-07-19T08:37:56.452Z,803
2017-07-19T08:39:56.517Z,808
2017-07-19T08:40:56.492Z,809
2017-07-19T08:41:56.420Z,824
2017-07-19T08:42:56.449Z,806
2017-07-19T08:43:56.452Z,821
2017-07-19T08:44:56.424Z,832
2017-07-19T08:45:56.514Z,840
2017-07-19T08:46:56.428Z,837
2017-07-19T08:47:56.467Z,836
2017-07-19T08:48:56.447Z,842
2017-07-19T08:49:56.476Z,836
2017-07-19T08:50:56.430Z,830
2017-07-19T08:51:56.415Z,852
2017-07-19T08:52:56.436Z,845
2017-07-19T08:53:56.381Z,845
2017-07-19T08:54:56.453Z,845
2017-07-19T08:55:56.413Z,850
2017-07-19T08:56:56.430Z,856
2017-07-19T08:57:56.418Z,860
2017-07-19T08:58:56.490Z,860
2017-07-19T08:59:56.524Z,859
2017-07-19T09:00:56.472Z,868
2017-07-19T09:01:56.476Z,874
2017-07-19T09:02:56.494Z,876
2017-07-19T09:03:56.473Z,872
2017-07-19T09:04:56.498Z,882
2017-07-19T09:05:56.458Z,881
2017-07-19T09:06:56.444Z,887
2017-07-19T09:07:56.440Z,880
2017-07-19T09:08:56.440Z,883
2017-07-19T09:09:56.438Z,884
2017-07-19T09:10:56.465Z,879
2017-07-19T09:11:56.443Z,867
2017-07-19T09:12:56.497Z,850
2017-07-19T09:13:56.507Z,892
2017-07-19T09:14:56.469Z,887
2017-07-19T09:15:56.474Z,895
2017-07-19T09:16:56.503Z,900
2017-07-19T09:17:56.463Z,903
2017-07-19T09:18:56.463Z,905
2017-07-19T09:19:56.504Z,905
2017-07-19T09:20:56.431Z,902
2017-07-19T09:21:56.439Z,910
2017-07-19T09:22:56.469Z,914
2017-07-19T09:23:56.435Z,896
2017-07-19T09:24:56.503Z,899
2017-07-19T09:25:56.499Z,901
2017-07-19T09:26:56.503Z,905
2017-07-19T09:27:56.504Z,912
2017-07-19T09:28:56.454Z,923
2017-07-19T09:29:56.460Z,916
2017-07-19T09:30:56.463Z,931
2017-07-19T09:31:56.458Z,935
2017-07-19T09:32:56.463Z,931
2017-07-19T09:33:56.388Z,925
2017-07-19T09:34:56.346Z,922
2017-07-19T09:35:56.498Z,913
2017-07-19T09:36:56.398Z,914
2017-07-19T09:37:56.348Z,874
2017-07-19T09:38:56.333Z,917
2017-07-19T09:39:56.349Z,917
2017-07-19T09:40:56.392Z,923
2017-07-19T09:41:56.364Z,928
2017-07-19T09:42:56.389Z,928
2017-07-19T09:43:56.476Z,924
2017-07-19T09:44:56.479Z,932
2017-07-19T09:45:56.514Z,962
2017-07-19T09:46:56.480Z,970
2017-07-19T09:47:56.516Z,950
2017-07-19T09:48:56.452Z,946
2017-07-19T09:49:56.457Z,923
2017-07-19T09:50:56.447Z,916
2017-07-19T09:51:56.479Z,875
2017-07-19T09:52:56.520Z,921
2017-07-19T09:53:56.530Z,925
2017-07-19T09:54:56.504Z,935
2017-07-19T09:55:56.488Z,935
2017-07-19T09:56:56.471Z,933
2017-07-19T09:57:56.528Z,961
2017-07-19T09:58:56.496Z,941
2017-07-19T09:59:56.469Z,912
2017-07-19T10:00:56.568Z,921
2017-07-19T10:01:56.473Z,873
2017-07-19T10:02:56.504Z,861
2017-07-19T10:03:56.550Z,892
2017-07-19T10:04:56.535Z,972
2017-07-19T10:05:56.476Z,974
2017-07-19T10:06:56.572Z,976
2017-07-19T10:07:56.535Z,963
2017-07-19T10:08:56.476Z,963
2017-07-19T10:09:56.542Z,911
2017-07-19T10:10:56.562Z,912
2017-07-19T10:11:56.529Z,914
2017-07-19T10:12:56.567Z,1028
2017-07-19T10:13:56.476Z,1000
2017-07-19T10:14:56.499Z,961
2017-07-19T10:15:56.532Z,955
2017-07-19T10:16:56.509Z,1021
2017-07-19T10:17:56.542Z,1034
2017-07-19T10:18:56.493Z,1016
2017-07-19T10:19:56.550Z,1025
2017-07-19T10:20:56.515Z,1003
2017-07-19T10:21:56.534Z,935
2017-07-19T10:22:56.575Z,975
2017-07-19T10:23:56.575Z,972
2017-07-19T10:24:56.576Z,977
2017-07-19T10:25:56.557Z,979
2017-07-19T10:26:56.540Z,933
2017-07-19T10:27:56.512Z,962
2017-07-19T10:28:56.486Z,964
2017-07-19T10:29:56.512Z,929
2017-07-19T10:30:56.546Z,875
2017-07-19T10:31:56.488Z,896
2017-07-19T10:32:56.518Z,874
2017-07-19T10:33:56.573Z,906
2017-07-19T10:34:56.576Z,949
2017-07-19T10:35:56.558Z,909
2017-07-19T10:36:56.582Z,979
2017-07-19T10:37:56.547Z,962
2017-07-19T10:38:56.493Z,954
2017-07-19T10:39:56.521Z,1000
2017-07-19T10:40:56.493Z,989
2017-07-19T10:41:56.496Z,958
2017-07-19T10:42:56.582Z,972
2017-07-19T10:43:56.489Z,928
2017-07-19T10:44:56.564Z,903
2017-07-19T10:45:56.582Z,843
2017-07-19T10:46:56.548Z,821
2017-07-19T10:47:56.532Z,749
2017-07-19T10:48:56.531Z,706
2017-07-19T10:49:56.583Z,688
2017-07-19T10:50:56.588Z,666
2017-07-19T10:51:56.554Z,649
2017-07-19T10:52:56.531Z,642
2017-07-19T10:53:56.558Z,735
2017-07-19T10:54:56.589Z,725
2017-07-19T10:55:56.377Z,826
2017-07-19T10:56:56.438Z,819
2017-07-19T10:57:56.401Z,924
2017-07-19T10:58:56.482Z,856
2017-07-19T10:59:56.407Z,991
2017-07-19T11:00:56.501Z,919
2017-07-19T11:01:56.446Z,838
2017-07-19T11:02:56.387Z,837
2017-07-19T11:03:56.431Z,741
2017-07-19T11:04:56.440Z,840
2017-07-19T11:05:56.441Z,754
2017-07-19T11:06:56.392Z,881
2017-07-19T11:07:56.443Z,970
2017-07-19T11:08:56.405Z,1072
2017-07-19T11:09:56.440Z,1011
2017-07-19T11:10:56.449Z,984
2017-07-19T11:11:56.400Z,895
2017-07-19T11:12:56.454Z,916
2017-07-19T11:13:56.385Z,860
2017-07-19T11:14:56.504Z,778
2017-07-19T11:15:56.530Z,689
2017-07-19T11:16:56.533Z,643
2017-07-19T11:17:56.534Z,641
2017-07-19T11:18:56.500Z,783
2017-07-19T11:19:56.537Z,890
2017-07-19T11:20:56.565Z,996
2017-07-19T11:21:56.572Z,978
2017-07-19T11:22:56.537Z,949
2017-07-19T11:23:56.573Z,852
2017-07-19T11:24:56.549Z,881
2017-07-19T11:25:56.546Z,929
2017-07-19T11:26:56.548Z,887
2017-07-19T11:27:56.594Z,867
2017-07-19T11:28:56.580Z,956
2017-07-19T11:29:56.595Z,949
2017-07-19T11:30:56.591Z,932
2017-07-19T11:31:56.590Z,803
2017-07-19T11:32:56.614Z,936
2017-07-19T11:33:56.581Z,942
2017-07-19T11:34:56.554Z,940
2017-07-19T11:35:56.586Z,916
2017-07-19T11:36:56.615Z,874
2017-07-19T11:37:56.585Z,937
2017-07-19T11:38:56.613Z,963
2017-07-19T11:39:56.555Z,891
2017-07-19T11:40:56.537Z,881
2017-07-19T11:41:56.592Z,849
2017-07-19T11:42:56.599Z,869
2017-07-19T11:43:56.551Z,846
2017-07-19T11:44:56.532Z,787
2017-07-19T11:45:56.528Z,789
2017-07-19T11:46:56.560Z,797
2017-07-19T11:47:56.610Z,764
2017-07-19T11:48:56.531Z,769
2017-07-19T11:49:56.538Z,740
2017-07-19T11:50:56.598Z,783
2017-07-19T11:51:56.596Z,788
2017-07-19T11:52:56.556Z,771
2017-07-19T11:53:56.556Z,755
2017-07-19T11:54:56.540Z,704
2017-07-19T11:55:56.538Z,894
2017-07-19T11:56:56.611Z,763
2017-07-19T11:57:56.629Z,803
2017-07-19T11:58:56.536Z,881
2017-07-19T11:59:56.608Z,889
2017-07-19T12:00:56.539Z,830
2017-07-19T12:01:56.572Z,883
2017-07-19T12:02:56.564Z,952
2017-07-19T12:03:56.605Z,957
2017-07-19T12:04:56.562Z,988
2017-07-19T12:05:56.565Z,967
2017-07-19T12:06:56.513Z,853
2017-07-19T12:07:56.540Z,865
2017-07-19T12:08:56.542Z,987
2017-07-19T12:09:56.560Z,1068
2017-07-19T12:10:56.603Z,1077
2017-07-19T12:11:56.613Z,1084
2017-07-19T12:12:56.603Z,1039
2017-07-19T12:13:56.549Z,953
2017-07-19T12:14:56.617Z,652
2017-07-19T12:15:56.546Z,520
2017-07-19T12:16:56.572Z,619
2017-07-19T12:17:56.601Z,666
2017-07-19T12:18:56.572Z,656
2017-07-19T12:19:56.636Z,606
2017-07-19T12:20:56.584Z,578
2017-07-19T12:21:56.585Z,622
2017-07-19T12:22:56.582Z,771
2017-07-19T12:23:56.553Z,841
2017-07-19T12:24:56.537Z,701
2017-07-19T12:25:56.544Z,579
2017-07-19T12:26:56.566Z,578
2017-07-19T12:27:56.602Z,517
2017-07-19T12:28:56.541Z,394
2017-07-19T12:29:56.537Z,431
2017-07-19T12:30:56.608Z,484
2017-07-19T12:31:56.607Z,549
2017-07-19T12:32:56.603Z,663
2017-07-19T12:33:56.545Z,727
2017-07-19T12:34:56.576Z,777
2017-07-19T12:35:56.552Z,805
2017-07-19T12:36:56.524Z,818
2017-07-19T12:37:56.510Z,817
2017-07-19T12:38:56.577Z,865
2017-07-19T12:39:56.577Z,732
2017-07-19T12:40:56.513Z,902
2017-07-19T12:41:56.596Z,930
2017-07-19T12:42:56.524Z,941
2017-07-19T12:43:56.567Z,968
2017-07-19T12:44:56.557Z,960
2017-07-19T12:45:56.654Z,948
2017-07-19T12:46:56.649Z,978
2017-07-19T12:47:56.655Z,978
2017-07-19T12:48:56.590Z,912
2017-07-19T12:49:56.593Z,926
2017-07-19T12:50:56.568Z,952
2017-07-19T12:51:56.651Z,951
2017-07-19T12:52:56.562Z,949
2017-07-19T12:53:56.585Z,917
2017-07-19T12:54:56.657Z,921
2017-07-19T12:55:56.599Z,892
2017-07-19T12:56:56.568Z,875
2017-07-19T12:57:56.572Z,902
2017-07-19T12:58:56.634Z,875
2017-07-19T12:59:56.630Z,876
2017-07-19T13:00:56.594Z,831
2017-07-19T13:01:56.597Z,812
2017-07-19T13:02:56.602Z,802
2017-07-19T13:03:56.642Z,763
2017-07-19T13:04:56.634Z,812
2017-07-19T13:05:56.597Z,968
2017-07-19T13:06:56.596Z,978
2017-07-19T13:07:56.594Z,936
2017-07-19T13:08:56.576Z,930
2017-07-19T13:09:56.579Z,921
2017-07-19T13:10:56.645Z,905
2017-07-19T13:11:56.605Z,888
2017-07-19T13:12:56.599Z,880
2017-07-19T13:13:56.578Z,811
2017-07-19T13:14:56.633Z,824
2017-07-19T13:15:56.608Z,815
2017-07-19T13:16:56.587Z,755
2017-07-19T13:17:56.613Z,734
2017-07-19T13:18:56.653Z,749
2017-07-19T13:19:56.589Z,775
2017-07-19T13:20:56.643Z,805
2017-07-19T13:21:56.608Z,783
2017-07-19T13:22:56.641Z,692
2017-07-19T13:23:56.608Z,573
2017-07-19T13:24:56.585Z,578
2017-07-19T13:25:56.593Z,478
2017-07-19T13:26:56.584Z,555
2017-07-19T13:27:56.616Z,522
2017-07-19T13:28:56.593Z,600
2017-07-19T13:29:56.613Z,672
2017-07-19T13:30:56.645Z,673
2017-07-19T13:31:56.595Z,735
2017-07-19T13:32:56.626Z,841
2017-07-19T13:33:56.649Z,884
2017-07-19T13:34:56.650Z,860
2017-07-19T13:35:56.684Z,787
2017-07-19T13:36:56.684Z,743
2017-07-19T13:37:56.649Z,678
2017-07-19T13:38:56.595Z,805
2017-07-19T13:39:56.612Z,884
2017-07-19T13:40:56.691Z,888
2017-07-19T13:41:56.665Z,885
2017-07-19T13:42:56.595Z,863
2017-07-19T13:43:56.669Z,861
2017-07-19T13:44:56.605Z,683
2017-07-19T13:45:56.685Z,679
2017-07-19T13:46:56.656Z,415
2017-07-19T13:47:56.693Z,460
2017-07-19T13:48:56.628Z,492
2017-07-19T13:49:56.660Z,604
2017-07-19T13:50:56.622Z,757
2017-07-19T13:51:56.624Z,762
2017-07-19T13:52:56.605Z,685
2017-07-19T13:53:56.603Z,690
2017-07-19T13:55:56.566Z,736
2017-07-19T13:56:56.624Z,793
2017-07-19T13:57:56.743Z,816
2017-07-19T13:58:56.618Z,838
2017-07-19T13:59:56.623Z,841
2017-07-19T14:00:56.574Z,842
2017-07-19T14:01:56.685Z,852
2017-07-19T14:02:56.579Z,838
2017-07-19T14:03:56.671Z,837
2017-07-19T14:04:56.583Z,827
2017-07-19T14:05:56.647Z,839
2017-07-19T14:06:56.648Z,819
2017-07-19T14:07:56.706Z,811
2017-07-19T14:08:56.614Z,795
2017-07-19T14:09:56.675Z,789
2017-07-19T14:10:56.682Z,810
2017-07-19T14:11:56.682Z,805